sensor_id;sensor_type;location;lat;lon;timestamp;P1;durP1;ratioP1;P2;durP2;ratioP2
71679;SDS011;59512;42.662;23.254;2023-06-10T00:01:47;14.70;;;11.88;;
71679;SDS011;59512;42.662;23.254;2023-06-10T00:04:16;13.50;;;9.73;;
71679;SDS011;59512;42.662;23.254;2023-06-10T00:06:44;13.13;;;9.77;;
71679;SDS011;59512;42.662;23.254;2023-06-10T00:09:10;15.43;;;9.88;;
71679;SDS011;59512;42.662;23.254;2023-06-10T00:11:38;15.57;;;9.70;;
71679;SDS011;59512;42.662;23.254;2023-06-10T00:14:04;15.48;;;10.63;;
71679;SDS011;59512;42.662;23.254;2023-06-10T00:16:29;14.83;;;10.10;;
71679;SDS011;59512;42.662;23.254;2023-06-10T00:18:55;14.18;;;10.25;;
71679;SDS011;59512;42.662;23.254;2023-06-10T00:21:25;15.48;;;10.60;;
71679;SDS011;59512;42.662;23.254;2023-06-10T00:23:51;15.37;;;10.90;;
71679;SDS011;59512;42.662;23.254;2023-06-10T00:26:16;13.35;;;9.15;;
71679;SDS011;59512;42.662;23.254;2023-06-10T00:28:41;16.40;;;9.32;;
71679;SDS011;59512;42.662;23.254;2023-06-10T00:31:07;14.90;;;10.33;;
71679;SDS011;59512;42.662;23.254;2023-06-10T00:33:33;14.25;;;9.65;;
71679;SDS011;59512;42.662;23.254;2023-06-10T00:35:58;14.18;;;10.30;;
71679;SDS011;59512;42.662;23.254;2023-06-10T00:38:23;14.53;;;9.67;;
71679;SDS011;59512;42.662;23.254;2023-06-10T00:40:49;13.27;;;9.73;;
71679;SDS011;59512;42.662;23.254;2023-06-10T00:43:15;14.93;;;10.27;;
71679;SDS011;59512;42.662;23.254;2023-06-10T00:45:40;13.57;;;8.75;;
71679;SDS011;59512;42.662;23.254;2023-06-10T00:48:05;11.77;;;7.73;;
71679;SDS011;59512;42.662;23.254;2023-06-10T00:50:31;12.73;;;8.37;;
71679;SDS011;59512;42.662;23.254;2023-06-10T00:52:56;12.23;;;8.80;;
71679;SDS011;59512;42.662;23.254;2023-06-10T00:55:23;16.95;;;9.20;;
71679;SDS011;59512;42.662;23.254;2023-06-10T00:57:49;12.68;;;8.85;;
71679;SDS011;59512;42.662;23.254;2023-06-10T01:00:16;14.73;;;8.93;;
71679;SDS011;59512;42.662;23.254;2023-06-10T01:02:42;13.17;;;9.30;;
71679;SDS011;59512;42.662;23.254;2023-06-10T01:05:08;14.40;;;9.55;;
71679;SDS011;59512;42.662;23.254;2023-06-10T01:13:00;14.00;;;8.50;;
71679;SDS011;59512;42.662;23.254;2023-06-10T01:15:32;11.98;;;8.00;;
71679;SDS011;59512;42.662;23.254;2023-06-10T01:17:59;11.02;;;8.02;;
71679;SDS011;59512;42.662;23.254;2023-06-10T01:20:27;15.17;;;7.90;;
71679;SDS011;59512;42.662;23.254;2023-06-10T01:22:56;14.30;;;8.80;;
71679;SDS011;59512;42.662;23.254;2023-06-10T01:25:23;13.85;;;9.20;;
71679;SDS011;59512;42.662;23.254;2023-06-10T01:28:04;13.38;;;9.15;;
71679;SDS011;59512;42.662;23.254;2023-06-10T01:30:36;12.95;;;8.32;;
71679;SDS011;59512;42.662;23.254;2023-06-10T01:33:07;12.93;;;8.40;;
71679;SDS011;59512;42.662;23.254;2023-06-10T01:35:34;12.77;;;8.48;;
71679;SDS011;59512;42.662;23.254;2023-06-10T01:38:01;15.52;;;9.55;;
71679;SDS011;59512;42.662;23.254;2023-06-10T01:40:27;13.70;;;9.18;;
71679;SDS011;59512;42.662;23.254;2023-06-10T01:42:54;13.77;;;9.60;;
71679;SDS011;59512;42.662;23.254;2023-06-10T01:45:20;14.50;;;9.33;;
71679;SDS011;59512;42.662;23.254;2023-06-10T01:47:45;12.37;;;9.10;;
71679;SDS011;59512;42.662;23.254;2023-06-10T01:50:11;13.50;;;9.70;;
71679;SDS011;59512;42.662;23.254;2023-06-10T01:52:36;11.68;;;8.57;;
71679;SDS011;59512;42.662;23.254;2023-06-10T01:55:02;13.88;;;9.13;;
71679;SDS011;59512;42.662;23.254;2023-06-10T01:57:28;14.02;;;8.98;;
71679;SDS011;59512;42.662;23.254;2023-06-10T01:59:53;13.10;;;8.80;;
71679;SDS011;59512;42.662;23.254;2023-06-10T02:02:19;11.20;;;8.40;;
71679;SDS011;59512;42.662;23.254;2023-06-10T02:04:46;12.60;;;8.02;;
71679;SDS011;59512;42.662;23.254;2023-06-10T02:07:12;12.03;;;8.13;;
71679;SDS011;59512;42.662;23.254;2023-06-10T02:09:37;11.50;;;8.03;;
71679;SDS011;59512;42.662;23.254;2023-06-10T02:12:03;12.45;;;8.15;;
71679;SDS011;59512;42.662;23.254;2023-06-10T02:14:29;12.27;;;8.20;;
71679;SDS011;59512;42.662;23.254;2023-06-10T02:16:55;11.55;;;7.60;;
71679;SDS011;59512;42.662;23.254;2023-06-10T02:19:22;12.82;;;8.43;;
71679;SDS011;59512;42.662;23.254;2023-06-10T02:21:48;12.73;;;8.40;;
71679;SDS011;59512;42.662;23.254;2023-06-10T02:24:14;12.17;;;8.53;;
71679;SDS011;59512;42.662;23.254;2023-06-10T02:26:39;14.23;;;9.48;;
71679;SDS011;59512;42.662;23.254;2023-06-10T02:29:05;14.32;;;9.55;;
71679;SDS011;59512;42.662;23.254;2023-06-10T02:31:31;14.35;;;9.90;;
71679;SDS011;59512;42.662;23.254;2023-06-10T02:33:56;12.93;;;9.13;;
71679;SDS011;59512;42.662;23.254;2023-06-10T02:36:22;14.73;;;10.00;;
71679;SDS011;59512;42.662;23.254;2023-06-10T02:38:49;13.00;;;8.65;;
71679;SDS011;59512;42.662;23.254;2023-06-10T02:41:14;11.57;;;8.40;;
71679;SDS011;59512;42.662;23.254;2023-06-10T02:43:40;12.43;;;9.07;;
71679;SDS011;59512;42.662;23.254;2023-06-10T02:46:05;13.32;;;8.82;;
71679;SDS011;59512;42.662;23.254;2023-06-10T02:48:31;13.33;;;8.87;;
71679;SDS011;59512;42.662;23.254;2023-06-10T02:50:56;11.70;;;8.53;;
71679;SDS011;59512;42.662;23.254;2023-06-10T02:53:22;12.70;;;7.85;;
71679;SDS011;59512;42.662;23.254;2023-06-10T02:55:47;10.87;;;7.73;;
71679;SDS011;59512;42.662;23.254;2023-06-10T02:58:12;13.57;;;8.93;;
71679;SDS011;59512;42.662;23.254;2023-06-10T03:00:38;10.70;;;7.53;;
71679;SDS011;59512;42.662;23.254;2023-06-10T03:03:05;16.45;;;8.63;;
71679;SDS011;59512;42.662;23.254;2023-06-10T03:05:30;12.80;;;7.70;;
71679;SDS011;59512;42.662;23.254;2023-06-10T03:07:56;10.77;;;7.77;;
71679;SDS011;59512;42.662;23.254;2023-06-10T03:10:21;10.57;;;7.60;;
71679;SDS011;59512;42.662;23.254;2023-06-10T03:12:47;9.73;;;6.95;;
71679;SDS011;59512;42.662;23.254;2023-06-10T03:15:12;10.10;;;6.43;;
71679;SDS011;59512;42.662;23.254;2023-06-10T03:17:38;9.83;;;7.13;;
71679;SDS011;59512;42.662;23.254;2023-06-10T03:20:03;10.38;;;6.30;;
71679;SDS011;59512;42.662;23.254;2023-06-10T03:22:35;9.50;;;6.63;;
71679;SDS011;59512;42.662;23.254;2023-06-10T03:25:00;9.85;;;6.30;;
71679;SDS011;59512;42.662;23.254;2023-06-10T03:27:26;11.90;;;7.40;;
71679;SDS011;59512;42.662;23.254;2023-06-10T03:29:52;12.20;;;9.23;;
71679;SDS011;59512;42.662;23.254;2023-06-10T03:32:17;14.77;;;10.10;;
71679;SDS011;59512;42.662;23.254;2023-06-10T03:34:43;13.40;;;10.40;;
71679;SDS011;59512;42.662;23.254;2023-06-10T03:37:10;14.18;;;10.80;;
71679;SDS011;59512;42.662;23.254;2023-06-10T03:39:35;15.90;;;10.55;;
71679;SDS011;59512;42.662;23.254;2023-06-10T03:42:01;14.60;;;10.40;;
71679;SDS011;59512;42.662;23.254;2023-06-10T03:44:26;15.80;;;10.17;;
71679;SDS011;59512;42.662;23.254;2023-06-10T03:46:52;15.25;;;11.35;;
71679;SDS011;59512;42.662;23.254;2023-06-10T03:49:19;15.75;;;12.10;;
71679;SDS011;59512;42.662;23.254;2023-06-10T03:51:44;15.03;;;11.70;;
71679;SDS011;59512;42.662;23.254;2023-06-10T03:54:10;15.90;;;11.87;;
71679;SDS011;59512;42.662;23.254;2023-06-10T03:56:35;16.73;;;12.70;;
71679;SDS011;59512;42.662;23.254;2023-06-10T03:59:01;15.25;;;12.20;;
71679;SDS011;59512;42.662;23.254;2023-06-10T04:01:26;16.20;;;11.87;;
71679;SDS011;59512;42.662;23.254;2023-06-10T04:03:52;17.55;;;12.57;;
71679;SDS011;59512;42.662;23.254;2023-06-10T04:06:19;16.87;;;12.60;;
71679;SDS011;59512;42.662;23.254;2023-06-10T04:08:44;15.75;;;12.50;;
71679;SDS011;59512;42.662;23.254;2023-06-10T04:11:10;15.10;;;11.07;;
71679;SDS011;59512;42.662;23.254;2023-06-10T04:13:35;16.03;;;11.43;;
71679;SDS011;59512;42.662;23.254;2023-06-10T04:16:01;17.33;;;12.65;;
71679;SDS011;59512;42.662;23.254;2023-06-10T04:18:27;15.98;;;11.98;;
71679;SDS011;59512;42.662;23.254;2023-06-10T04:20:53;16.57;;;10.73;;
71679;SDS011;59512;42.662;23.254;2023-06-10T04:23:18;15.00;;;11.38;;
71679;SDS011;59512;42.662;23.254;2023-06-10T04:25:44;16.43;;;11.90;;
71679;SDS011;59512;42.662;23.254;2023-06-10T04:28:09;15.43;;;11.10;;
71679;SDS011;59512;42.662;23.254;2023-06-10T04:30:35;15.67;;;11.40;;
71679;SDS011;59512;42.662;23.254;2023-06-10T04:33:00;16.30;;;10.53;;
71679;SDS011;59512;42.662;23.254;2023-06-10T04:35:25;16.42;;;11.05;;
71679;SDS011;59512;42.662;23.254;2023-06-10T04:37:53;17.57;;;12.47;;
71679;SDS011;59512;42.662;23.254;2023-06-10T04:40:19;16.08;;;11.25;;
71679;SDS011;59512;42.662;23.254;2023-06-10T04:42:44;15.63;;;10.60;;
71679;SDS011;59512;42.662;23.254;2023-06-10T04:45:10;16.40;;;11.93;;
71679;SDS011;59512;42.662;23.254;2023-06-10T04:47:36;15.48;;;11.80;;
71679;SDS011;59512;42.662;23.254;2023-06-10T04:50:01;14.70;;;11.00;;
71679;SDS011;59512;42.662;23.254;2023-06-10T04:52:28;14.32;;;11.10;;
71679;SDS011;59512;42.662;23.254;2023-06-10T04:54:53;13.97;;;10.43;;
71679;SDS011;59512;42.662;23.254;2023-06-10T04:57:19;14.57;;;10.40;;
71679;SDS011;59512;42.662;23.254;2023-06-10T04:59:45;14.80;;;10.88;;
71679;SDS011;59512;42.662;23.254;2023-06-10T05:02:11;18.50;;;11.70;;
71679;SDS011;59512;42.662;23.254;2023-06-10T05:04:36;13.40;;;10.60;;
71679;SDS011;59512;42.662;23.254;2023-06-10T05:07:02;16.37;;;11.47;;
71679;SDS011;59512;42.662;23.254;2023-06-10T05:09:27;15.77;;;11.73;;
71679;SDS011;59512;42.662;23.254;2023-06-10T05:11:53;15.23;;;11.63;;
71679;SDS011;59512;42.662;23.254;2023-06-10T05:14:19;15.17;;;11.53;;
71679;SDS011;59512;42.662;23.254;2023-06-10T05:16:46;17.27;;;11.48;;
71679;SDS011;59512;42.662;23.254;2023-06-10T05:19:12;16.92;;;12.70;;
71679;SDS011;59512;42.662;23.254;2023-06-10T05:21:37;17.60;;;13.23;;
71679;SDS011;59512;42.662;23.254;2023-06-10T05:24:03;24.53;;;19.17;;
71679;SDS011;59512;42.662;23.254;2023-06-10T05:26:28;19.50;;;15.10;;
71679;SDS011;59512;42.662;23.254;2023-06-10T05:28:56;14.50;;;11.20;;
71679;SDS011;59512;42.662;23.254;2023-06-10T05:31:22;16.73;;;10.77;;
71679;SDS011;59512;42.662;23.254;2023-06-10T05:33:47;14.97;;;11.73;;
71679;SDS011;59512;42.662;23.254;2023-06-10T05:36:13;17.83;;;11.50;;
71679;SDS011;59512;42.662;23.254;2023-06-10T05:38:38;13.93;;;10.57;;
71679;SDS011;59512;42.662;23.254;2023-06-10T05:41:03;13.37;;;9.50;;
71679;SDS011;59512;42.662;23.254;2023-06-10T05:43:29;15.47;;;11.00;;
71679;SDS011;59512;42.662;23.254;2023-06-10T05:45:54;16.63;;;11.67;;
71679;SDS011;59512;42.662;23.254;2023-06-10T05:48:20;16.73;;;12.17;;
71679;SDS011;59512;42.662;23.254;2023-06-10T05:50:45;15.40;;;11.60;;
71679;SDS011;59512;42.662;23.254;2023-06-10T05:53:13;18.70;;;14.10;;
71679;SDS011;59512;42.662;23.254;2023-06-10T05:55:41;18.60;;;13.80;;
71679;SDS011;59512;42.662;23.254;2023-06-10T05:58:07;22.88;;;14.20;;
71679;SDS011;59512;42.662;23.254;2023-06-10T06:00:33;22.33;;;15.60;;
71679;SDS011;59512;42.662;23.254;2023-06-10T06:02:58;17.77;;;13.00;;
71679;SDS011;59512;42.662;23.254;2023-06-10T06:05:24;16.05;;;12.88;;
71679;SDS011;59512;42.662;23.254;2023-06-10T06:07:50;16.33;;;12.75;;
71679;SDS011;59512;42.662;23.254;2023-06-10T06:10:16;15.77;;;11.47;;
71679;SDS011;59512;42.662;23.254;2023-06-10T06:12:42;13.73;;;10.20;;
71679;SDS011;59512;42.662;23.254;2023-06-10T06:15:08;18.13;;;10.60;;
71679;SDS011;59512;42.662;23.254;2023-06-10T06:17:34;15.52;;;10.20;;
71679;SDS011;59512;42.662;23.254;2023-06-10T06:19:59;15.13;;;10.80;;
71679;SDS011;59512;42.662;23.254;2023-06-10T06:22:25;16.73;;;11.15;;
71679;SDS011;59512;42.662;23.254;2023-06-10T06:24:50;15.87;;;11.17;;
71679;SDS011;59512;42.662;23.254;2023-06-10T06:27:16;20.20;;;10.40;;
71679;SDS011;59512;42.662;23.254;2023-06-10T06:29:41;16.13;;;10.40;;
71679;SDS011;59512;42.662;23.254;2023-06-10T06:32:07;13.80;;;9.60;;
71679;SDS011;59512;42.662;23.254;2023-06-10T06:34:32;17.57;;;9.67;;
71679;SDS011;59512;42.662;23.254;2023-06-10T06:36:58;11.20;;;7.47;;
71679;SDS011;59512;42.662;23.254;2023-06-10T06:39:24;10.23;;;7.10;;
71679;SDS011;59512;42.662;23.254;2023-06-10T06:41:49;10.13;;;6.57;;
71679;SDS011;59512;42.662;23.254;2023-06-10T06:44:14;11.07;;;7.10;;
71679;SDS011;59512;42.662;23.254;2023-06-10T06:46:40;11.35;;;6.85;;
71679;SDS011;59512;42.662;23.254;2023-06-10T06:49:05;11.87;;;7.00;;
71679;SDS011;59512;42.662;23.254;2023-06-10T06:51:31;11.40;;;7.53;;
71679;SDS011;59512;42.662;23.254;2023-06-10T06:53:56;12.98;;;7.40;;
71679;SDS011;59512;42.662;23.254;2023-06-10T06:56:24;12.00;;;7.38;;
71679;SDS011;59512;42.662;23.254;2023-06-10T06:58:49;11.40;;;7.40;;
71679;SDS011;59512;42.662;23.254;2023-06-10T07:01:15;11.90;;;6.43;;
71679;SDS011;59512;42.662;23.254;2023-06-10T07:03:41;9.90;;;6.57;;
71679;SDS011;59512;42.662;23.254;2023-06-10T07:06:06;10.90;;;5.80;;
71679;SDS011;59512;42.662;23.254;2023-06-10T07:08:31;9.17;;;5.60;;
71679;SDS011;59512;42.662;23.254;2023-06-10T07:10:57;8.90;;;5.10;;
71679;SDS011;59512;42.662;23.254;2023-06-10T07:13:22;8.27;;;5.65;;
71679;SDS011;59512;42.662;23.254;2023-06-10T07:15:48;8.63;;;5.23;;
71679;SDS011;59512;42.662;23.254;2023-06-10T07:18:14;9.63;;;5.23;;
71679;SDS011;59512;42.662;23.254;2023-06-10T07:20:40;10.38;;;5.60;;
71679;SDS011;59512;42.662;23.254;2023-06-10T07:23:06;8.63;;;5.20;;
71679;SDS011;59512;42.662;23.254;2023-06-10T07:25:32;11.17;;;5.20;;
71679;SDS011;59512;42.662;23.254;2023-06-10T07:27:57;14.70;;;5.80;;
71679;SDS011;59512;42.662;23.254;2023-06-10T07:30:22;11.10;;;5.67;;
71679;SDS011;59512;42.662;23.254;2023-06-10T07:32:48;8.57;;;5.20;;
71679;SDS011;59512;42.662;23.254;2023-06-10T07:35:13;9.82;;;5.07;;
71679;SDS011;59512;42.662;23.254;2023-06-10T07:37:39;8.77;;;4.57;;
71679;SDS011;59512;42.662;23.254;2023-06-10T07:40:04;9.50;;;4.83;;
71679;SDS011;59512;42.662;23.254;2023-06-10T07:42:34;10.23;;;6.03;;
71679;SDS011;59512;42.662;23.254;2023-06-10T07:45:00;9.23;;;5.53;;
71679;SDS011;59512;42.662;23.254;2023-06-10T07:47:26;10.10;;;5.30;;
71679;SDS011;59512;42.662;23.254;2023-06-10T07:49:51;11.80;;;5.53;;
71679;SDS011;59512;42.662;23.254;2023-06-10T07:52:16;10.07;;;5.90;;
71679;SDS011;59512;42.662;23.254;2023-06-10T07:54:42;8.80;;;5.43;;
71679;SDS011;59512;42.662;23.254;2023-06-10T07:57:07;8.97;;;4.90;;
71679;SDS011;59512;42.662;23.254;2023-06-10T07:59:33;7.77;;;4.70;;
71679;SDS011;59512;42.662;23.254;2023-06-10T08:01:58;8.32;;;4.75;;
71679;SDS011;59512;42.662;23.254;2023-06-10T08:04:24;10.67;;;4.83;;
71679;SDS011;59512;42.662;23.254;2023-06-10T08:06:49;8.77;;;4.30;;
71679;SDS011;59512;42.662;23.254;2023-06-10T08:09:15;10.47;;;5.57;;
71679;SDS011;59512;42.662;23.254;2023-06-10T08:11:41;9.68;;;4.75;;
71679;SDS011;59512;42.662;23.254;2023-06-10T08:14:06;9.90;;;5.10;;
71679;SDS011;59512;42.662;23.254;2023-06-10T08:16:32;8.57;;;4.55;;
71679;SDS011;59512;42.662;23.254;2023-06-10T08:18:57;8.53;;;4.90;;
71679;SDS011;59512;42.662;23.254;2023-06-10T08:21:22;7.70;;;4.50;;
71679;SDS011;59512;42.662;23.254;2023-06-10T08:23:49;9.83;;;4.23;;
71679;SDS011;59512;42.662;23.254;2023-06-10T08:26:17;8.05;;;4.50;;
71679;SDS011;59512;42.662;23.254;2023-06-10T08:28:43;8.10;;;4.30;;
71679;SDS011;59512;42.662;23.254;2023-06-10T08:31:08;8.53;;;4.17;;
71679;SDS011;59512;42.662;23.254;2023-06-10T08:33:33;7.80;;;3.72;;
71679;SDS011;59512;42.662;23.254;2023-06-10T08:35:59;10.00;;;4.00;;
71679;SDS011;59512;42.662;23.254;2023-06-10T08:38:24;7.33;;;3.73;;
71679;SDS011;59512;42.662;23.254;2023-06-10T08:40:50;7.37;;;4.17;;
71679;SDS011;59512;42.662;23.254;2023-06-10T08:43:41;7.30;;;4.00;;
71679;SDS011;59512;42.662;23.254;2023-06-10T08:46:09;6.88;;;3.42;;
71679;SDS011;59512;42.662;23.254;2023-06-10T08:48:39;7.10;;;3.35;;
71679;SDS011;59512;42.662;23.254;2023-06-10T08:51:10;7.63;;;3.50;;
71679;SDS011;59512;42.662;23.254;2023-06-10T08:53:36;6.97;;;4.00;;
71679;SDS011;59512;42.662;23.254;2023-06-10T08:56:03;9.18;;;3.90;;
71679;SDS011;59512;42.662;23.254;2023-06-10T08:58:29;7.20;;;3.75;;
71679;SDS011;59512;42.662;23.254;2023-06-10T09:00:58;6.97;;;3.40;;
71679;SDS011;59512;42.662;23.254;2023-06-10T09:03:24;6.33;;;3.00;;
71679;SDS011;59512;42.662;23.254;2023-06-10T09:05:50;5.65;;;2.97;;
71679;SDS011;59512;42.662;23.254;2023-06-10T09:08:16;8.07;;;4.10;;
71679;SDS011;59512;42.662;23.254;2023-06-10T09:10:41;8.37;;;3.80;;
71679;SDS011;59512;42.662;23.254;2023-06-10T09:13:07;9.10;;;4.30;;
71679;SDS011;59512;42.662;23.254;2023-06-10T09:15:32;9.33;;;4.63;;
71679;SDS011;59512;42.662;23.254;2023-06-10T09:17:58;8.98;;;4.28;;
71679;SDS011;59512;42.662;23.254;2023-06-10T09:20:24;9.75;;;4.20;;
71679;SDS011;59512;42.662;23.254;2023-06-10T09:22:50;8.25;;;3.92;;
71679;SDS011;59512;42.662;23.254;2023-06-10T09:25:15;9.03;;;3.90;;
71679;SDS011;59512;42.662;23.254;2023-06-10T09:30:10;8.05;;;4.50;;
71679;SDS011;59512;42.662;23.254;2023-06-10T09:32:38;8.07;;;4.10;;
71679;SDS011;59512;42.662;23.254;2023-06-10T09:35:08;9.05;;;4.13;;
71679;SDS011;59512;42.662;23.254;2023-06-10T09:37:35;10.00;;;4.20;;
71679;SDS011;59512;42.662;23.254;2023-06-10T09:40:04;7.20;;;3.97;;
71679;SDS011;59512;42.662;23.254;2023-06-10T09:42:33;9.70;;;3.90;;
71679;SDS011;59512;42.662;23.254;2023-06-10T09:45:00;7.55;;;3.70;;
71679;SDS011;59512;42.662;23.254;2023-06-10T09:47:26;7.40;;;3.90;;
71679;SDS011;59512;42.662;23.254;2023-06-10T09:49:52;7.27;;;3.77;;
71679;SDS011;59512;42.662;23.254;2023-06-10T09:52:23;7.18;;;3.67;;
71679;SDS011;59512;42.662;23.254;2023-06-10T09:54:50;6.57;;;3.60;;
71679;SDS011;59512;42.662;23.254;2023-06-10T09:57:17;6.40;;;3.53;;
71679;SDS011;59512;42.662;23.254;2023-06-10T09:59:43;7.50;;;3.83;;
71679;SDS011;59512;42.662;23.254;2023-06-10T10:02:16;8.02;;;3.90;;
71679;SDS011;59512;42.662;23.254;2023-06-10T10:04:42;7.70;;;4.00;;
71679;SDS011;59512;42.662;23.254;2023-06-10T10:07:09;8.02;;;4.10;;
71679;SDS011;59512;42.662;23.254;2023-06-10T10:09:41;7.70;;;4.40;;
71679;SDS011;59512;42.662;23.254;2023-06-10T10:12:09;9.30;;;4.68;;
71679;SDS011;59512;42.662;23.254;2023-06-10T10:14:36;8.90;;;4.57;;
71679;SDS011;59512;42.662;23.254;2023-06-10T10:17:01;8.70;;;4.80;;
71679;SDS011;59512;42.662;23.254;2023-06-10T10:19:30;8.90;;;5.43;;
71679;SDS011;59512;42.662;23.254;2023-06-10T10:21:59;7.95;;;4.60;;
71679;SDS011;59512;42.662;23.254;2023-06-10T10:24:33;7.80;;;4.82;;
71679;SDS011;59512;42.662;23.254;2023-06-10T10:27:01;9.50;;;4.65;;
71679;SDS011;59512;42.662;23.254;2023-06-10T10:29:38;7.47;;;4.40;;
71679;SDS011;59512;42.662;23.254;2023-06-10T10:32:03;11.23;;;5.25;;
71679;SDS011;59512;42.662;23.254;2023-06-10T10:34:33;13.15;;;5.80;;
71679;SDS011;59512;42.662;23.254;2023-06-10T10:37:02;9.75;;;5.57;;
71679;SDS011;59512;42.662;23.254;2023-06-10T10:39:28;8.20;;;5.05;;
71679;SDS011;59512;42.662;23.254;2023-06-10T10:41:54;7.68;;;4.55;;
71679;SDS011;59512;42.662;23.254;2023-06-10T10:44:20;7.95;;;4.50;;
71679;SDS011;59512;42.662;23.254;2023-06-10T10:46:49;7.17;;;4.07;;
71679;SDS011;59512;42.662;23.254;2023-06-10T10:49:16;7.93;;;3.90;;
71679;SDS011;59512;42.662;23.254;2023-06-10T10:51:58;8.70;;;3.40;;
71679;SDS011;59512;42.662;23.254;2023-06-10T10:54:35;6.40;;;3.78;;
71679;SDS011;59512;42.662;23.254;2023-06-10T10:57:18;8.30;;;3.85;;
71679;SDS011;59512;42.662;23.254;2023-06-10T11:02:31;6.72;;;3.58;;
71679;SDS011;59512;42.662;23.254;2023-06-10T11:05:00;5.72;;;3.08;;
71679;SDS011;59512;42.662;23.254;2023-06-10T11:07:26;6.75;;;3.25;;
71679;SDS011;59512;42.662;23.254;2023-06-10T11:10:12;6.82;;;3.50;;
71679;SDS011;59512;42.662;23.254;2023-06-10T11:31:23;7.18;;;3.50;;
71679;SDS011;59512;42.662;23.254;2023-06-10T11:34:01;7.30;;;3.80;;
71679;SDS011;59512;42.662;23.254;2023-06-10T11:36:29;5.72;;;3.20;;
71679;SDS011;59512;42.662;23.254;2023-06-10T11:38:56;5.77;;;3.30;;
71679;SDS011;59512;42.662;23.254;2023-06-10T11:41:26;8.48;;;3.75;;
71679;SDS011;59512;42.662;23.254;2023-06-10T11:43:53;6.78;;;3.42;;
71679;SDS011;59512;42.662;23.254;2023-06-10T11:46:19;6.43;;;3.45;;
71679;SDS011;59512;42.662;23.254;2023-06-10T11:48:57;9.10;;;3.83;;
71679;SDS011;59512;42.662;23.254;2023-06-10T11:51:27;7.40;;;3.55;;
71679;SDS011;59512;42.662;23.254;2023-06-10T11:53:55;6.88;;;3.40;;
71679;SDS011;59512;42.662;23.254;2023-06-10T11:56:21;6.60;;;3.73;;
71679;SDS011;59512;42.662;23.254;2023-06-10T11:58:51;7.70;;;3.70;;
71679;SDS011;59512;42.662;23.254;2023-06-10T12:01:36;9.05;;;4.07;;
71679;SDS011;59512;42.662;23.254;2023-06-10T12:04:06;6.47;;;3.92;;
71679;SDS011;59512;42.662;23.254;2023-06-10T12:12:01;9.45;;;4.07;;
71679;SDS011;59512;42.662;23.254;2023-06-10T12:17:15;10.35;;;4.25;;
71679;SDS011;59512;42.662;23.254;2023-06-10T12:19:40;7.30;;;4.40;;
71679;SDS011;59512;42.662;23.254;2023-06-10T12:22:05;11.80;;;4.00;;
71679;SDS011;59512;42.662;23.254;2023-06-10T12:24:31;7.50;;;4.10;;
71679;SDS011;59512;42.662;23.254;2023-06-10T12:26:56;7.30;;;3.80;;
71679;SDS011;59512;42.662;23.254;2023-06-10T12:29:23;9.47;;;4.07;;
71679;SDS011;59512;42.662;23.254;2023-06-10T12:32:00;7.85;;;4.10;;
71679;SDS011;59512;42.662;23.254;2023-06-10T12:34:31;8.57;;;4.17;;
71679;SDS011;59512;42.662;23.254;2023-06-10T12:37:01;9.02;;;4.47;;
71679;SDS011;59512;42.662;23.254;2023-06-10T12:39:29;7.63;;;4.20;;
71679;SDS011;59512;42.662;23.254;2023-06-10T12:41:57;7.20;;;4.13;;
71679;SDS011;59512;42.662;23.254;2023-06-10T12:44:30;7.13;;;4.00;;
71679;SDS011;59512;42.662;23.254;2023-06-10T12:46:56;8.03;;;3.93;;
71679;SDS011;59512;42.662;23.254;2023-06-10T12:49:22;7.78;;;3.95;;
71679;SDS011;59512;42.662;23.254;2023-06-10T12:51:47;9.20;;;3.70;;
71679;SDS011;59512;42.662;23.254;2023-06-10T12:54:13;6.00;;;3.53;;
71679;SDS011;59512;42.662;23.254;2023-06-10T12:56:39;6.67;;;3.50;;
71679;SDS011;59512;42.662;23.254;2023-06-10T12:59:04;6.90;;;3.67;;
71679;SDS011;59512;42.662;23.254;2023-06-10T13:01:30;7.05;;;3.90;;
71679;SDS011;59512;42.662;23.254;2023-06-10T13:03:56;8.57;;;3.80;;
71679;SDS011;59512;42.662;23.254;2023-06-10T13:06:22;7.43;;;3.97;;
71679;SDS011;59512;42.662;23.254;2023-06-10T13:08:47;9.18;;;4.30;;
71679;SDS011;59512;42.662;23.254;2023-06-10T13:11:13;7.33;;;4.00;;
71679;SDS011;59512;42.662;23.254;2023-06-10T13:13:38;9.83;;;4.10;;
71679;SDS011;59512;42.662;23.254;2023-06-10T13:16:04;9.80;;;5.23;;
71679;SDS011;59512;42.662;23.254;2023-06-10T13:18:30;10.77;;;4.40;;
71679;SDS011;59512;42.662;23.254;2023-06-10T13:21:02;8.38;;;4.10;;
71679;SDS011;59512;42.662;23.254;2023-06-10T13:23:28;9.13;;;4.78;;
71679;SDS011;59512;42.662;23.254;2023-06-10T13:25:53;8.67;;;4.40;;
71679;SDS011;59512;42.662;23.254;2023-06-10T13:28:19;7.80;;;4.43;;
71679;SDS011;59512;42.662;23.254;2023-06-10T13:30:44;10.25;;;4.95;;
71679;SDS011;59512;42.662;23.254;2023-06-10T13:33:10;7.57;;;4.07;;
71679;SDS011;59512;42.662;23.254;2023-06-10T13:35:35;7.63;;;4.20;;
71679;SDS011;59512;42.662;23.254;2023-06-10T13:38:01;9.18;;;4.90;;
71679;SDS011;59512;42.662;23.254;2023-06-10T13:40:26;7.07;;;4.20;;
71679;SDS011;59512;42.662;23.254;2023-06-10T13:42:52;10.17;;;4.60;;
71679;SDS011;59512;42.662;23.254;2023-06-10T13:45:19;9.70;;;4.90;;
71679;SDS011;59512;42.662;23.254;2023-06-10T13:47:44;10.40;;;4.87;;
71679;SDS011;59512;42.662;23.254;2023-06-10T13:50:10;10.50;;;4.57;;
71679;SDS011;59512;42.662;23.254;2023-06-10T13:52:35;10.20;;;4.67;;
71679;SDS011;59512;42.662;23.254;2023-06-10T13:55:01;11.00;;;5.57;;
71679;SDS011;59512;42.662;23.254;2023-06-10T13:57:26;8.87;;;4.90;;
71679;SDS011;59512;42.662;23.254;2023-06-10T13:59:51;8.63;;;4.53;;
71679;SDS011;59512;42.662;23.254;2023-06-10T14:02:17;8.10;;;4.70;;
71679;SDS011;59512;42.662;23.254;2023-06-10T14:04:48;15.70;;;11.27;;
71679;SDS011;59512;42.662;23.254;2023-06-10T14:07:14;8.20;;;5.03;;
71679;SDS011;59512;42.662;23.254;2023-06-10T14:09:40;10.02;;;5.20;;
71679;SDS011;59512;42.662;23.254;2023-06-10T14:12:06;7.97;;;4.70;;
71679;SDS011;59512;42.662;23.254;2023-06-10T14:14:31;8.00;;;4.60;;
71679;SDS011;59512;42.662;23.254;2023-06-10T14:16:58;8.93;;;4.30;;
71679;SDS011;59512;42.662;23.254;2023-06-10T14:19:23;8.97;;;4.70;;
71679;SDS011;59512;42.662;23.254;2023-06-10T14:21:49;8.20;;;4.47;;
71679;SDS011;59512;42.662;23.254;2023-06-10T14:24:14;11.17;;;5.03;;
71679;SDS011;59512;42.662;23.254;2023-06-10T14:26:40;7.87;;;4.80;;
71679;SDS011;59512;42.662;23.254;2023-06-10T14:29:05;9.13;;;4.90;;
71679;SDS011;59512;42.662;23.254;2023-06-10T14:31:32;9.48;;;5.38;;
71679;SDS011;59512;42.662;23.254;2023-06-10T14:33:57;9.52;;;4.90;;
71679;SDS011;59512;42.662;23.254;2023-06-10T14:36:23;7.93;;;4.63;;
71679;SDS011;59512;42.662;23.254;2023-06-10T14:38:48;6.97;;;3.70;;
71679;SDS011;59512;42.662;23.254;2023-06-10T14:41:14;8.23;;;4.72;;
71679;SDS011;59512;42.662;23.254;2023-06-10T14:43:40;7.20;;;4.10;;
71679;SDS011;59512;42.662;23.254;2023-06-10T14:46:05;14.07;;;9.02;;
71679;SDS011;59512;42.662;23.254;2023-06-10T14:48:31;16.20;;;11.07;;
71679;SDS011;59512;42.662;23.254;2023-06-10T14:50:56;8.63;;;5.07;;
71679;SDS011;59512;42.662;23.254;2023-06-10T14:53:21;10.20;;;5.87;;
71679;SDS011;59512;42.662;23.254;2023-06-10T14:55:47;8.20;;;5.30;;
71679;SDS011;59512;42.662;23.254;2023-06-10T14:58:12;9.60;;;5.20;;